Time;durP1;ratioP1;P1;durP2;ratioP2;P2;SDS_P1;SDS_P2;PMS_P1;PMS_P2;Temp;Humidity;BMP_temperature;BMP_pressure;BME280_temperature;BME280_humidity;BME280_pressure;Samples;Min_cycle;Max_cycle;Signal;HPM_P1;HPM_P2
2022/01/16 00:00:40;;;;;;;1999.90;999.90;;;2.50;99.90;;;;;;5092515;28;20044;-63
2022/01/16 00:05:52;;;;;;;1999.90;999.90;;;2.40;99.90;;;;;;5092885;28;20048;-63
2022/01/16 00:08:18;;;;;;;1999.90;999.90;;;2.40;99.90;;;;;;5092785;28;20581;-62
2022/01/16 00:10:44;;;;;;;1999.90;999.90;;;2.40;99.90;;;;;;5093453;28;20047;-63
2022/01/16 00:13:10;;;;;;;1999.90;999.90;;;2.40;99.90;;;;;;5092677;28;20059;-63
2022/01/16 00:15:35;;;;;;;1999.90;999.90;;;2.40;99.90;;;;;;5092514;28;20036;-63
2022/01/16 00:20:28;;;;;;;1999.90;999.90;;;2.30;99.90;;;;;;5092819;28;20131;-63
2022/01/16 00:22:55;;;;;;;1999.90;999.90;;;2.20;99.90;;;;;;5092270;28;20123;-62
2022/01/16 00:25:21;;;;;;;1999.90;999.90;;;2.30;99.90;;;;;;5093307;28;20058;-62
2022/01/16 00:27:47;;;;;;;1999.90;999.90;;;2.30;99.90;;;;;;5092419;28;20032;-62
2022/01/16 00:30:14;;;;;;;1999.90;999.90;;;2.30;99.90;;;;;;5093017;28;20047;-63
2022/01/16 00:32:39;;;;;;;1999.90;999.90;;;2.20;99.90;;;;;;5092723;28;20048;-63
2022/01/16 00:35:06;;;;;;;1999.90;999.90;;;2.10;99.90;;;;;;5091795;28;20462;-63
2022/01/16 00:37:32;;;;;;;1999.90;999.90;;;2.00;99.90;;;;;;5092978;28;20406;-62
2022/01/16 00:39:57;;;;;;;1999.90;999.90;;;2.00;99.90;;;;;;5092752;28;20040;-63
2022/01/16 00:42:23;;;;;;;1999.90;999.90;;;2.10;99.90;;;;;;5092002;28;20078;-62
2022/01/16 00:44:49;;;;;;;1999.90;999.90;;;1.90;99.90;;;;;;5092842;28;20047;-62
2022/01/16 00:47:15;;;;;;;1999.90;999.90;;;1.90;99.90;;;;;;5092834;28;20048;-62
2022/01/16 00:49:41;;;;;;;1999.90;999.90;;;1.90;99.90;;;;;;5091111;28;20048;-62
2022/01/16 00:52:08;;;;;;;1999.90;999.90;;;1.80;99.90;;;;;;5093064;28;20135;-63
2022/01/16 00:54:35;;;;;;;1999.90;999.90;;;1.80;99.90;;;;;;5092890;28;20066;-62
2022/01/16 00:57:00;;;;;;;1999.90;999.90;;;1.70;99.90;;;;;;5092053;28;20048;-63
2022/01/16 00:59:26;;;;;;;1999.90;999.90;;;1.80;99.90;;;;;;5092702;28;20131;-62
2022/01/16 01:01:52;;;;;;;1999.90;999.90;;;1.70;99.90;;;;;;5092768;28;20062;-62
2022/01/16 01:04:18;;;;;;;1999.90;999.90;;;1.70;99.90;;;;;;5091382;28;20181;-62
2022/01/16 01:06:47;;;;;;;1999.90;999.90;;;1.80;99.90;;;;;;5092546;28;20109;-62
2022/01/16 01:09:13;;;;;;;1999.90;999.90;;;1.80;99.90;;;;;;5092820;28;20093;-62
2022/01/16 01:11:40;;;;;;;1999.90;999.90;;;1.80;99.90;;;;;;5091593;28;20375;-62
2022/01/16 01:16:50;;;;;;;1999.90;999.90;;;1.80;99.90;;;;;;5096281;28;20123;-62
2022/01/16 01:19:18;;;;;;;1999.90;999.90;;;1.80;99.90;;;;;;5075683;28;20052;-62
2022/01/16 01:21:43;;;;;;;1999.90;999.90;;;1.70;99.90;;;;;;5076694;28;20490;-62
2022/01/16 01:24:09;;;;;;;1999.90;999.90;;;1.70;99.90;;;;;;5079419;28;20094;-62
2022/01/16 01:26:43;;;;;;;1999.90;999.90;;;1.60;99.90;;;;;;5096321;28;20083;-62
2022/01/16 01:29:09;;;;;;;1999.90;999.90;;;1.50;99.90;;;;;;5096619;28;20044;-62
2022/01/16 01:31:35;;;;;;;1999.90;999.90;;;1.50;99.90;;;;;;5095933;28;20115;-62
2022/01/16 01:34:00;;;;;;;1999.90;999.90;;;1.50;99.90;;;;;;5095817;28;20467;-62
2022/01/16 01:36:26;;;;;;;1999.90;999.90;;;1.50;99.90;;;;;;5096440;28;20114;-62
2022/01/16 01:38:52;;;;;;;1999.90;999.90;;;1.50;99.90;;;;;;5095679;28;20125;-62
2022/01/16 01:41:19;;;;;;;1999.90;999.90;;;1.40;99.90;;;;;;5096018;28;20063;-63
2022/01/16 01:52:09;;;;;;;1999.90;999.90;;;1.10;99.90;;;;;;5095281;28;20135;-62
2022/01/16 01:54:35;;;;;;;1999.90;999.90;;;1.10;99.90;;;;;;5095656;28;20059;-62
2022/01/16 01:57:01;;;;;;;1999.90;999.90;;;1.10;99.90;;;;;;5096126;28;20044;-62
2022/01/16 01:59:27;;;;;;;1999.90;999.90;;;1.20;99.90;;;;;;5095038;28;20083;-63
2022/01/16 02:01:53;;;;;;;1999.90;999.90;;;1.20;99.90;;;;;;5095962;28;20040;-62
2022/01/16 02:04:19;;;;;;;1999.90;999.90;;;1.20;99.90;;;;;;5095505;28;20549;-62
2022/01/16 02:06:45;;;;;;;1999.90;999.90;;;1.20;99.90;;;;;;5095152;28;20132;-63
2022/01/16 02:09:10;;;;;;;1999.90;999.90;;;1.20;99.90;;;;;;5095529;28;20107;-62
2022/01/16 02:11:36;;;;;;;1999.90;999.90;;;1.10;99.90;;;;;;5095611;28;20044;-62
2022/01/16 02:14:12;;;;;;;1999.90;999.90;;;1.10;99.90;;;;;;5094856;28;20040;-62
2022/01/16 02:28:02;;;;;;;1999.90;999.90;;;1.10;99.90;;;;;;5093315;28;20173;-62
2022/01/16 02:33:21;;;;;;;1999.90;999.90;;;1.10;99.90;;;;;;5095249;28;20052;-62
2022/01/16 02:35:49;;;;;;;1999.90;999.90;;;1.10;99.90;;;;;;5093991;28;20060;-62
2022/01/16 02:38:15;;;;;;;1999.90;999.90;;;1.10;99.90;;;;;;5095334;28;20098;-62
2022/01/16 02:40:48;;;;;;;1999.90;999.90;;;1.10;99.90;;;;;;5094782;28;20432;-62
2022/01/16 02:43:17;;;;;;;1999.90;999.90;;;1.10;99.90;;;;;;5094369;28;20044;-62
2022/01/16 02:45:47;;;;;;;1999.90;999.90;;;1.00;99.90;;;;;;5094832;28;20101;-62
2022/01/16 02:48:12;;;;;;;1999.90;999.90;;;1.10;99.90;;;;;;5094672;28;20050;-62
2022/01/16 02:50:38;;;;;;;1999.90;999.90;;;1.10;99.90;;;;;;5094177;28;20052;-62
2022/01/16 02:53:09;;;;;;;1999.90;999.90;;;1.10;99.90;;;;;;5094526;28;20401;-62
2022/01/16 02:55:39;;;;;;;1999.90;999.90;;;1.10;99.90;;;;;;5094169;28;20048;-62
2022/01/16 02:58:05;;;;;;;1999.90;999.90;;;1.10;99.90;;;;;;5076860;28;20136;-62
2022/01/16 03:00:31;;;;;;;1999.90;999.90;;;1.10;99.90;;;;;;5095087;28;20087;-62
2022/01/16 03:02:57;;;;;;;1999.90;999.90;;;1.10;99.90;;;;;;5093238;28;20519;-62
2022/01/16 03:05:23;;;;;;;1999.90;999.90;;;1.10;99.90;;;;;;5094796;28;20472;-62
2022/01/16 03:07:48;;;;;;;1999.90;999.90;;;1.10;99.90;;;;;;5094797;28;20054;-62
2022/01/16 03:12:49;;;;;;;;;;;1.10;99.90;;;;;;5095227;28;20044;-62
2022/01/16 03:15:16;;;;;;;1999.90;999.90;;;1.10;99.90;;;;;;5094667;28;20377;-62
2022/01/16 03:21:53;;;;;;;1999.90;999.90;;;1.10;99.90;;;;;;5051628;28;20053;-62
2022/01/16 03:23:23;;;;;;;1999.90;999.90;;;1.10;99.90;;;;;;5094093;28;20051;-62
2022/01/16 03:25:50;;;;;;;1999.90;999.90;;;1.10;99.90;;;;;;5093894;28;20420;-62
2022/01/16 03:28:17;;;;;;;1999.90;999.90;;;1.10;99.90;;;;;;5093727;28;20058;-62
2022/01/16 03:30:43;;;;;;;1999.90;999.90;;;1.10;99.90;;;;;;5093627;28;20040;-62
2022/01/16 03:33:09;;;;;;;1999.90;999.90;;;1.10;99.90;;;;;;5093821;28;20513;-62
2022/01/16 03:35:35;;;;;;;1999.90;999.90;;;1.10;99.90;;;;;;5093604;28;20044;-62
2022/01/16 03:38:01;;;;;;;1999.90;999.90;;;1.10;99.90;;;;;;5079443;28;20053;-62
2022/01/16 03:40:27;;;;;;;1999.90;999.90;;;1.20;99.90;;;;;;5073097;28;20048;-62
2022/01/16 03:42:58;;;;;;;1999.90;999.90;;;1.20;99.90;;;;;;5073730;28;20052;-62
2022/01/16 03:45:24;;;;;;;1999.90;999.90;;;1.20;99.90;;;;;;5073446;28;20131;-63
2022/01/16 03:47:50;;;;;;;1999.90;999.90;;;1.20;99.90;;;;;;5093693;28;20124;-62
2022/01/16 03:50:16;;;;;;;1999.90;999.90;;;1.20;99.90;;;;;;5093713;28;20475;-62
2022/01/16 03:52:42;;;;;;;1999.90;999.90;;;1.20;99.90;;;;;;5092859;28;20100;-62
2022/01/16 03:55:08;;;;;;;1999.90;999.90;;;1.30;99.90;;;;;;5090110;28;20087;-62
2022/01/16 03:57:36;;;;;;;1999.90;999.90;;;1.30;99.90;;;;;;5094033;28;20075;-62
2022/01/16 04:00:04;;;;;;;1999.90;999.90;;;1.30;99.90;;;;;;5092761;28;20401;-62
2022/01/16 04:02:30;;;;;;;1999.90;999.90;;;1.30;99.90;;;;;;5093294;28;20082;-62
2022/01/16 04:04:56;;;;;;;1999.90;999.90;;;1.40;99.90;;;;;;5083784;28;20048;-62
2022/01/16 04:07:27;;;;;;;1999.90;999.90;;;1.40;99.90;;;;;;5072696;28;20055;-62
2022/01/16 04:09:53;;;;;;;1999.90;999.90;;;1.40;99.90;;;;;;5072862;28;20049;-62
2022/01/16 04:12:22;;;;;;;1999.90;999.90;;;1.50;99.90;;;;;;5073019;28;20040;-62
2022/01/16 04:17:17;;;;;;;1999.90;999.90;;;1.50;99.90;;;;;;5072459;28;20403;-63
2022/01/16 04:19:44;;;;;;;1999.90;999.90;;;1.50;99.90;;;;;;5073074;28;20084;-63
2022/01/16 04:22:10;;;;;;;1999.90;999.90;;;1.50;99.90;;;;;;5071800;28;20419;-62
2022/01/16 04:24:37;;;;;;;1999.90;999.90;;;1.60;99.90;;;;;;5072848;28;20133;-63
2022/01/16 04:27:03;;;;;;;1999.90;999.90;;;1.50;99.90;;;;;;5072150;28;20090;-62
2022/01/16 04:29:29;;;;;;;1999.90;999.90;;;1.50;99.90;;;;;;5073040;28;20047;-62
2022/01/16 04:31:55;;;;;;;1999.90;999.90;;;1.50;99.90;;;;;;5072439;28;20080;-62
2022/01/16 04:34:21;;;;;;;1999.90;999.90;;;1.60;99.90;;;;;;5071980;28;20053;-62
2022/01/16 04:36:47;;;;;;;1999.90;999.90;;;1.60;99.90;;;;;;5072532;28;20052;-63
2022/01/16 04:39:16;;;;;;;1999.90;999.90;;;1.50;99.90;;;;;;5072658;28;20068;-62
2022/01/16 04:44:27;;;;;;;1999.90;999.90;;;1.50;99.90;;;;;;5072476;28;20491;-62
2022/01/16 04:46:53;;;;;;;1999.90;999.90;;;1.60;99.90;;;;;;5072623;28;20064;-62
2022/01/16 04:49:19;;;;;;;1999.90;999.90;;;1.60;99.90;;;;;;5071331;28;20122;-62
2022/01/16 04:51:45;;;;;;;1999.90;999.90;;;1.60;99.90;;;;;;5073008;28;20482;-62
2022/01/16 04:54:11;;;;;;;1999.90;999.90;;;1.60;99.90;;;;;;5072289;28;20044;-62
2022/01/16 04:56:37;;;;;;;1999.90;999.90;;;1.60;99.90;;;;;;5071662;28;20099;-62
2022/01/16 04:59:03;;;;;;;1999.90;999.90;;;1.70;99.90;;;;;;5072581;28;20057;-62
2022/01/16 05:01:30;;;;;;;1999.90;999.90;;;1.60;99.90;;;;;;5072255;28;20044;-62
2022/01/16 05:03:55;;;;;;;1999.90;999.90;;;1.70;99.90;;;;;;5071734;28;20160;-62
2022/01/16 05:06:22;;;;;;;1999.90;999.90;;;1.70;99.90;;;;;;5072303;28;20120;-62
2022/01/16 05:08:48;;;;;;;1999.90;999.90;;;1.70;99.90;;;;;;5072297;28;20052;-62
2022/01/16 05:11:16;;;;;;;1999.90;999.90;;;1.70;99.90;;;;;;5071750;28;20121;-62
2022/01/16 05:18:54;;;;;;;1999.90;999.90;;;1.80;99.90;;;;;;5072240;28;20486;-62
2022/01/16 05:21:20;;;;;;;1999.90;999.90;;;1.80;99.90;;;;;;5054755;28;20048;-62
2022/01/16 05:23:46;;;;;;;1999.90;999.90;;;1.80;99.90;;;;;;5070922;28;20587;-62
2022/01/16 05:26:13;;;;;;;1999.90;999.90;;;1.80;99.90;;;;;;5072592;28;20135;-62
2022/01/16 05:28:39;;;;;;;1999.90;999.90;;;1.90;99.90;;;;;;5072379;28;20053;-62
2022/01/16 05:31:05;;;;;;;1999.90;999.90;;;1.90;99.90;;;;;;5071065;28;20056;-62
2022/01/16 05:33:32;;;;;;;1999.90;999.90;;;1.90;99.90;;;;;;5089159;28;20056;-62
2022/01/16 05:35:58;;;;;;;1999.90;999.90;;;2.00;99.90;;;;;;5092638;28;20044;-62
2022/01/16 05:38:24;;;;;;;1999.90;999.90;;;2.00;99.90;;;;;;5091528;28;20048;-63
2022/01/16 05:40:49;;;;;;;1999.90;999.90;;;2.00;99.90;;;;;;5088302;28;20059;-62
2022/01/16 05:43:15;;;;;;;1999.90;999.90;;;2.00;99.90;;;;;;5071958;28;20098;-63
2022/01/16 05:45:41;;;;;;;1999.90;999.90;;;2.00;99.90;;;;;;5071188;28;20044;-62
2022/01/16 05:48:07;;;;;;;1999.90;999.90;;;2.00;99.90;;;;;;5072287;28;20053;-62
2022/01/16 05:50:33;;;;;;;1999.90;999.90;;;2.00;99.90;;;;;;5071758;28;20032;-62
2022/01/16 05:53:00;;;;;;;1999.90;999.90;;;2.10;99.90;;;;;;5071002;28;20056;-62
2022/01/16 05:55:29;;;;;;;1999.90;999.90;;;2.10;99.90;;;;;;5072210;28;20041;-62
2022/01/16 05:57:55;;;;;;;1999.90;999.90;;;2.10;99.90;;;;;;5072187;28;20051;-63
2022/01/16 06:00:20;;;;;;;1999.90;999.90;;;2.20;99.90;;;;;;5073742;28;20040;-62
2022/01/16 06:02:46;;;;;;;1999.90;999.90;;;2.10;99.90;;;;;;5075421;28;20055;-63
2022/01/16 06:05:12;;;;;;;1999.90;999.90;;;2.20;99.90;;;;;;5075611;28;20044;-62
2022/01/16 06:07:41;;;;;;;1999.90;999.90;;;2.20;99.90;;;;;;5074010;28;20076;-63
2022/01/16 06:10:07;;;;;;;1999.90;999.90;;;2.20;99.90;;;;;;5075638;28;20060;-62
2022/01/16 06:12:32;;;;;;;1999.90;999.90;;;2.20;99.90;;;;;;5074649;28;20056;-63
2022/01/16 06:15:00;;;;;;;1999.90;999.90;;;2.20;99.90;;;;;;5057392;28;20371;-63
2022/01/16 06:17:26;;;;;;;1999.90;999.90;;;2.20;99.90;;;;;;5074906;28;20051;-62
2022/01/16 06:19:51;;;;;;;1999.90;999.90;;;2.30;99.90;;;;;;5074614;28;20040;-63
2022/01/16 06:22:17;;;;;;;1999.90;999.90;;;2.30;99.90;;;;;;5075220;28;20041;-63
2022/01/16 06:24:43;;;;;;;1999.90;999.90;;;2.30;99.90;;;;;;5074864;28;20134;-63
2022/01/16 06:27:08;;;;;;;1999.90;999.90;;;2.30;99.90;;;;;;5074264;28;20036;-63
2022/01/16 06:29:34;;;;;;;1999.90;999.90;;;2.30;99.90;;;;;;5074908;28;20138;-63
2022/01/16 06:32:01;;;;;;;1999.90;999.90;;;2.30;99.90;;;;;;5075079;28;20087;-63
2022/01/16 06:34:27;;;;;;;1999.90;999.90;;;2.40;99.90;;;;;;5082253;28;20081;-63
2022/01/16 06:36:53;;;;;;;1999.90;999.90;;;2.40;99.90;;;;;;5094867;28;20144;-63
2022/01/16 06:39:19;;;;;;;1999.90;999.90;;;2.40;99.90;;;;;;5095268;28;20743;-63
2022/01/16 06:41:45;;;;;;;1999.90;999.90;;;2.40;99.90;;;;;;5094485;28;20048;-63
2022/01/16 06:44:11;;;;;;;1999.90;999.90;;;2.40;99.90;;;;;;5078160;28;20047;-63
2022/01/16 06:46:36;;;;;;;1999.90;999.90;;;2.40;99.90;;;;;;5075049;28;20053;-63
2022/01/16 06:49:02;;;;;;;1999.90;999.90;;;2.40;99.90;;;;;;5074157;28;20059;-63
2022/01/16 06:51:28;;;;;;;1999.90;999.90;;;2.40;99.90;;;;;;5074313;28;20052;-62
2022/01/16 06:53:55;;;;;;;1999.90;999.90;;;2.50;99.90;;;;;;5056545;28;20052;-62
2022/01/16 06:56:21;;;;;;;1999.90;999.90;;;2.40;99.90;;;;;;5073914;28;20044;-63
2022/01/16 06:58:47;;;;;;;1999.90;999.90;;;2.50;99.90;;;;;;5074510;28;20047;-63
2022/01/16 07:01:14;;;;;;;1999.90;999.90;;;2.50;99.90;;;;;;5084830;28;20440;-63
2022/01/16 07:03:40;;;;;;;1999.90;999.90;;;2.60;99.90;;;;;;5094347;28;20454;-62
2022/01/16 07:06:06;;;;;;;1999.90;999.90;;;2.60;99.90;;;;;;5075190;28;20044;-63
2022/01/16 07:08:32;;;;;;;1999.90;999.90;;;2.60;99.90;;;;;;5074577;28;20083;-63
2022/01/16 07:11:00;;;;;;;1999.90;999.90;;;2.60;99.90;;;;;;5071880;28;20080;-63
2022/01/16 07:13:27;;;;;;;1999.90;999.90;;;2.70;99.90;;;;;;5074053;28;20080;-63
2022/01/16 07:15:53;;;;;;;1999.90;999.90;;;2.70;99.90;;;;;;5073646;28;20048;-62
2022/01/16 07:18:19;;;;;;;1999.90;999.90;;;2.70;99.90;;;;;;5073370;28;20049;-63
2022/01/16 07:20:46;;;;;;;1999.90;999.90;;;2.70;99.90;;;;;;5074091;28;20120;-63
2022/01/16 07:23:13;;;;;;;1999.90;999.90;;;2.80;99.90;;;;;;5073588;28;20097;-63
2022/01/16 07:25:40;;;;;;;1999.90;999.90;;;2.80;99.90;;;;;;5073904;28;20048;-63
2022/01/16 07:28:07;;;;;;;1999.90;999.90;;;2.80;99.90;;;;;;5072814;28;20054;-62
2022/01/16 07:30:33;;;;;;;1999.90;999.90;;;2.90;99.90;;;;;;5076245;28;20040;-63
2022/01/16 07:32:59;;;;;;;1999.90;999.90;;;2.90;99.90;;;;;;5076692;28;20532;-63
2022/01/16 07:35:25;;;;;;;1999.90;999.90;;;2.90;99.90;;;;;;5077066;28;20040;-63
2022/01/16 07:37:52;;;;;;;1999.90;999.90;;;3.00;99.90;;;;;;5078220;28;20497;-63
2022/01/16 07:40:20;;;;;;;1999.90;999.90;;;3.00;99.90;;;;;;5077114;28;20094;-63
2022/01/16 07:42:46;;;;;;;1999.90;999.90;;;3.00;99.90;;;;;;5075570;28;20058;-63
2022/01/16 07:45:12;;;;;;;1999.90;999.90;;;3.10;99.90;;;;;;5073238;28;20045;-63
2022/01/16 07:47:38;;;;;;;1999.90;999.90;;;3.10;99.90;;;;;;5073653;28;20051;-63
2022/01/16 07:50:06;;;;;;;1999.90;999.90;;;3.10;99.90;;;;;;5073139;28;20055;-63
2022/01/16 07:52:32;;;;;;;1999.90;999.90;;;3.10;99.90;;;;;;5072548;28;20053;-63
2022/01/16 07:54:57;;;;;;;1999.90;999.90;;;3.10;99.90;;;;;;5073100;28;20048;-63
2022/01/16 07:57:23;;;;;;;1999.90;999.90;;;3.20;99.90;;;;;;5073321;28;20036;-63
2022/01/16 07:59:50;;;;;;;1999.90;999.90;;;3.20;99.90;;;;;;5072767;28;20479;-62
2022/01/16 08:02:16;;;;;;;1999.90;999.90;;;3.20;99.90;;;;;;5073317;28;20043;-62
2022/01/16 08:04:42;;;;;;;1999.90;999.90;;;3.30;99.90;;;;;;5072984;28;20044;-63
2022/01/16 08:07:10;;;;;;;1999.90;999.90;;;3.30;99.90;;;;;;5072664;28;20521;-63
2022/01/16 08:09:37;;;;;;;1999.90;999.90;;;3.40;99.90;;;;;;5073386;28;20119;-63
2022/01/16 08:12:04;;;;;;;1999.90;999.90;;;3.50;99.90;;;;;;5056192;28;20045;-63
2022/01/16 08:14:30;;;;;;;1999.90;999.90;;;3.50;99.90;;;;;;5063336;28;20051;-63
2022/01/16 08:16:56;;;;;;;1999.90;999.90;;;3.60;99.90;;;;;;5054826;28;20408;-63
2022/01/16 08:19:24;;;;;;;1999.90;999.90;;;3.60;99.90;;;;;;5071210;28;20564;-63
2022/01/16 08:21:50;;;;;;;1999.90;999.90;;;3.70;99.90;;;;;;5071972;28;20475;-63
2022/01/16 08:24:16;;;;;;;1999.90;999.90;;;3.70;99.90;;;;;;5072901;28;20123;-63
2022/01/16 08:26:43;;;;;;;1999.90;999.90;;;3.70;99.90;;;;;;5071933;28;20435;-63
2022/01/16 08:29:09;;;;;;;1999.90;999.90;;;3.70;99.90;;;;;;5071394;28;20470;-63
2022/01/16 08:31:35;;;;;;;1999.90;999.90;;;3.70;99.90;;;;;;5072633;28;20048;-62
2022/01/16 08:34:01;;;;;;;1999.90;999.90;;;3.80;99.90;;;;;;5071807;28;20063;-63
2022/01/16 08:36:27;;;;;;;1999.90;999.90;;;3.80;99.90;;;;;;5072185;28;20047;-63
2022/01/16 08:38:54;;;;;;;1999.90;999.90;;;3.80;99.90;;;;;;5071821;28;20490;-62
2022/01/16 08:41:21;;;;;;;1999.90;999.90;;;3.80;99.90;;;;;;5071774;28;20474;-63
2022/01/16 08:43:47;;;;;;;1999.90;999.90;;;3.80;99.90;;;;;;5072337;28;20060;-63
2022/01/16 08:46:14;;;;;;;1999.90;999.90;;;3.80;99.90;;;;;;5072401;28;20423;-63
2022/01/16 08:48:40;;;;;;;1999.90;999.90;;;3.90;99.90;;;;;;5092095;28;20401;-62
2022/01/16 08:51:06;;;;;;;1999.90;999.90;;;3.90;99.90;;;;;;5092307;28;20050;-63
2022/01/16 08:53:32;;;;;;;1999.90;999.90;;;4.00;99.90;;;;;;5092781;28;20052;-63
2022/01/16 08:55:59;;;;;;;1999.90;999.90;;;4.10;99.90;;;;;;5064867;28;20041;-63
2022/01/16 08:58:26;;;;;;;1999.90;999.90;;;4.10;99.90;;;;;;5052302;28;20124;-63
2022/01/16 09:00:52;;;;;;;1999.90;999.90;;;4.10;99.90;;;;;;5052545;28;20049;-63
2022/01/16 09:03:19;;;;;;;1999.90;999.90;;;4.10;99.90;;;;;;5052058;28;20500;-63
2022/01/16 09:05:46;;;;;;;1999.90;999.90;;;4.20;99.90;;;;;;5067965;28;20501;-63
2022/01/16 09:08:13;;;;;;;1999.90;999.90;;;4.20;99.90;;;;;;5072053;28;20521;-63
2022/01/16 09:10:41;;;;;;;1999.90;999.90;;;4.30;99.90;;;;;;5072009;28;20133;-63
2022/01/16 09:13:11;;;;;;;1999.90;999.90;;;4.30;99.90;;;;;;5071139;28;20063;-63
2022/01/16 09:15:38;;;;;;;1999.90;999.90;;;4.40;99.90;;;;;;5071547;28;20386;-63
2022/01/16 09:18:05;;;;;;;1999.90;999.90;;;4.40;99.90;;;;;;5071960;28;20060;-63
2022/01/16 09:20:31;;;;;;;1999.90;999.90;;;4.40;99.90;;;;;;5072211;28;20051;-63
2022/01/16 09:22:56;;;;;;;1999.90;999.90;;;4.50;99.90;;;;;;5070110;28;20119;-63
2022/01/16 09:25:23;;;;;;;1999.90;999.90;;;4.50;99.90;;;;;;5072274;28;20078;-63
2022/01/16 09:27:49;;;;;;;1999.90;999.90;;;4.60;99.90;;;;;;5072108;28;20128;-63
2022/01/16 09:30:15;;;;;;;1999.90;999.90;;;4.60;99.90;;;;;;5071214;28;20490;-63
2022/01/16 09:32:41;;;;;;;1999.90;999.90;;;4.70;99.90;;;;;;5071430;28;20045;-63
2022/01/16 09:35:09;;;;;;;1999.90;999.90;;;4.70;99.90;;;;;;5074998;28;20056;-63
2022/01/16 09:37:35;;;;;;;1999.90;999.90;;;4.70;99.90;;;;;;5080236;28;20097;-63
2022/01/16 09:40:02;;;;;;;1999.90;999.90;;;4.70;99.90;;;;;;5081842;28;20119;-63
2022/01/16 09:42:28;;;;;;;1999.90;999.90;;;4.80;99.90;;;;;;5086127;28;20055;-63
2022/01/16 09:44:54;;;;;;;1999.90;999.90;;;4.80;99.90;;;;;;5079853;28;20413;-63
2022/01/16 09:47:21;;;;;;;1999.90;999.90;;;4.80;99.90;;;;;;5086030;28;20052;-63
2022/01/16 09:49:47;;;;;;;1999.90;999.90;;;4.80;99.90;;;;;;5064335;28;20052;-63
2022/01/16 09:52:12;;;;;;;1999.90;999.90;;;4.90;99.90;;;;;;5090139;28;20043;-63
2022/01/16 09:54:39;;;;;;;1999.90;999.90;;;4.90;99.90;;;;;;5088867;28;20080;-63
2022/01/16 09:57:06;;;;;;;1999.90;999.90;;;5.00;99.90;;;;;;5074501;28;20141;-63
2022/01/16 09:59:33;;;;;;;1999.90;999.90;;;5.00;99.90;;;;;;5077707;28;20088;-63
2022/01/16 10:01:59;;;;;;;1999.90;999.90;;;5.00;99.90;;;;;;5080203;28;20060;-63
2022/01/16 10:04:32;;;;;;;1999.90;999.90;;;5.10;99.90;;;;;;5080027;28;20040;-63
2022/01/16 10:07:01;;;;;;;1999.90;999.90;;;5.10;99.90;;;;;;5072292;28;20057;-63
2022/01/16 10:09:27;;;;;;;1999.90;999.90;;;5.20;99.90;;;;;;5055429;28;20052;-63
2022/01/16 10:11:56;;;;;;;1999.90;999.90;;;5.20;99.90;;;;;;5054193;28;20558;-63
2022/01/16 10:14:30;;;;;;;1999.90;999.90;;;5.20;99.90;;;;;;5057755;28;20060;-63
2022/01/16 10:16:55;;;;;;;1999.90;999.90;;;5.30;99.90;;;;;;5074788;28;20499;-63
2022/01/16 10:19:24;;;;;;;1999.90;999.90;;;5.30;99.90;;;;;;5094495;28;20036;-63
2022/01/16 10:21:51;;;;;;;1999.90;999.90;;;5.30;99.90;;;;;;5095631;28;20470;-63
2022/01/16 10:24:26;;;;;;;1999.90;999.90;;;5.40;99.90;;;;;;5086973;28;20033;-64
2022/01/16 10:27:14;;;;;;;1999.90;999.90;;;5.50;99.90;;;;;;5073958;28;20460;-63
2022/01/16 10:29:43;;;;;;;1999.90;999.90;;;5.50;99.90;;;;;;5074634;28;20490;-63
2022/01/16 10:32:22;;;;;;;1999.90;999.90;;;5.50;99.90;;;;;;5074417;28;20045;-63
2022/01/16 10:34:51;;;;;;;1999.90;999.90;;;5.60;99.90;;;;;;5073994;28;20055;-63
2022/01/16 10:37:25;;;;;;;1999.90;999.90;;;5.60;99.90;;;;;;5074411;28;20040;-63
2022/01/16 10:39:53;;;;;;;1999.90;999.90;;;5.70;99.90;;;;;;5074464;28;20044;-63
2022/01/16 10:42:19;;;;;;;1999.90;999.90;;;5.70;99.90;;;;;;5074153;28;20149;-64
2022/01/16 10:44:45;;;;;;;1999.90;999.90;;;5.70;99.90;;;;;;5073277;28;20088;-64
2022/01/16 10:47:23;;;;;;;1999.90;999.90;;;5.70;99.90;;;;;;5073735;28;20394;-64
2022/01/16 10:49:58;;;;;;;1999.90;999.90;;;5.70;99.90;;;;;;5074194;28;20052;-64
2022/01/16 10:52:24;;;;;;;1999.90;999.90;;;5.80;99.90;;;;;;5074665;28;20397;-64
2022/01/16 10:54:50;;;;;;;1999.90;999.90;;;5.80;99.90;;;;;;5073610;28;20045;-64
2022/01/16 10:57:26;;;;;;;1999.90;999.90;;;5.80;99.90;;;;;;5072653;28;20407;-63
2022/01/16 11:00:05;;;;;;;1999.90;999.90;;;5.70;99.90;;;;;;5062944;28;20037;-63
2022/01/16 11:02:31;;;;;;;1999.90;999.90;;;5.70;99.90;;;;;;5048709;28;20386;-63
2022/01/16 11:07:01;;;;;;;1999.90;999.90;;;5.70;99.90;;;;;;5072217;28;20969;-62
2022/01/16 11:09:28;;;;;;;1999.90;999.90;;;5.80;99.90;;;;;;5082530;28;20159;-62
2022/01/16 11:11:59;;;;;;;1999.90;999.90;;;5.80;99.90;;;;;;5075598;28;20048;-62
2022/01/16 11:14:26;;;;;;;1999.90;999.90;;;5.80;99.90;;;;;;5069839;28;20502;-62
2022/01/16 11:16:54;;;;;;;1999.90;999.90;;;5.80;99.90;;;;;;5069426;28;20057;-62
2022/01/16 11:19:22;;;;;;;1999.90;999.90;;;5.80;99.90;;;;;;5074324;28;20040;-62
2022/01/16 11:21:51;;;;;;;1999.90;999.90;;;5.90;99.90;;;;;;5090112;28;20048;-62
2022/01/16 11:26:44;;;;;;;1999.90;999.90;;;6.00;99.90;;;;;;5088813;28;20056;-62
2022/01/16 11:29:13;;;;;;;1999.90;999.90;;;6.10;99.90;;;;;;5088419;28;20546;-62
2022/01/16 11:31:39;;;;;;;1999.90;999.90;;;6.20;99.90;;;;;;5090108;28;20405;-62
2022/01/16 11:34:05;;;;;;;1999.90;999.90;;;6.30;99.90;;;;;;5081367;28;20119;-62
2022/01/16 11:36:32;;;;;;;1999.90;999.90;;;6.30;99.90;;;;;;5086143;28;20120;-61
2022/01/16 11:39:01;;;;;;;1999.90;999.90;;;6.30;99.90;;;;;;5089663;28;20497;-62
2022/01/16 11:41:33;;;;;;;1999.90;999.90;;;6.40;99.90;;;;;;5089294;28;20097;-62
2022/01/16 11:44:00;;;;;;;1999.90;999.90;;;6.40;99.90;;;;;;5084624;28;20418;-62
2022/01/16 11:46:30;;;;;;;1999.90;999.90;;;6.40;99.90;;;;;;5089474;28;20048;-62
2022/01/16 11:48:58;;;;;;;1999.90;999.90;;;6.50;99.90;;;;;;5089198;28;20390;-62
2022/01/16 11:51:39;;;;;;;1999.90;999.90;;;6.50;99.90;;;;;;5088900;28;20048;-62
2022/01/16 11:54:06;;;;;;;1999.90;999.90;;;6.50;99.90;;;;;;5086261;28;20506;-62
2022/01/16 11:56:37;;;;;;;1999.90;999.90;;;6.50;99.90;;;;;;5069301;28;20048;-62
2022/01/16 11:59:20;;;;;;;1999.90;999.90;;;6.50;99.90;;;;;;5068594;28;20467;-62
2022/01/16 12:01:48;;;;;;;1999.90;999.90;;;6.50;99.90;;;;;;5087449;28;20127;-62
2022/01/16 12:04:29;;;;;;;1999.90;999.90;;;6.60;99.90;;;;;;5085249;28;20044;-62
2022/01/16 12:06:57;;;;;;;1999.90;999.90;;;6.60;99.90;;;;;;5069163;28;20102;-62
2022/01/16 12:09:36;;;;;;;1999.90;999.90;;;6.70;99.90;;;;;;5068619;28;20544;-62
2022/01/16 12:12:03;;;;;;;1999.90;999.90;;;6.60;99.90;;;;;;5087792;28;20052;-62
2022/01/16 12:14:53;;;;;;;1999.90;999.90;;;6.70;99.90;;;;;;5089244;28;20036;-62
2022/01/16 12:17:26;;;;;;;1999.90;999.90;;;6.60;99.90;;;;;;5073162;28;20502;-62
2022/01/16 12:19:53;;;;;;;1999.90;999.90;;;6.60;99.90;;;;;;5066104;28;20124;-62
2022/01/16 12:22:46;;;;;;;1999.90;999.90;;;6.60;99.90;;;;;;5075671;28;20045;-62
2022/01/16 12:25:25;;;;;;;1999.90;999.90;;;6.60;99.90;;;;;;5074524;28;20508;-62
2022/01/16 12:27:55;;;;;;;1999.90;999.90;;;6.70;99.90;;;;;;5074892;28;20102;-63
2022/01/16 12:30:35;;;;;;;1999.90;999.90;;;6.70;99.90;;;;;;5075528;28;20107;-62
2022/01/16 12:33:09;;;;;;;1999.90;999.90;;;6.70;99.90;;;;;;5074421;28;20052;-62
2022/01/16 12:35:41;;;;;;;1999.90;999.90;;;6.70;99.90;;;;;;5075182;28;20543;-62
2022/01/16 12:38:08;;;;;;;1999.90;999.90;;;6.70;99.90;;;;;;5074636;28;20047;-62
2022/01/16 12:40:34;;;;;;;1999.90;999.90;;;6.70;99.90;;;;;;5074242;28;20060;-62
2022/01/16 12:43:01;;;;;;;1999.90;999.90;;;6.70;99.90;;;;;;5072520;28;20434;-62
2022/01/16 12:45:29;;;;;;;1999.90;999.90;;;6.70;99.90;;;;;;5058513;28;20037;-62
2022/01/16 12:47:56;;;;;;;1999.90;999.90;;;6.70;99.90;;;;;;5072782;28;20087;-62
2022/01/16 12:50:23;;;;;;;1999.90;999.90;;;6.80;99.90;;;;;;5075119;28;20086;-62
2022/01/16 12:52:48;;;;;;;1999.90;999.90;;;6.80;99.90;;;;;;5075164;28;20049;-62
2022/01/16 12:55:14;;;;;;;1999.90;999.90;;;6.80;99.90;;;;;;5061867;28;20037;-62
2022/01/16 12:57:40;;;;;;;1999.90;999.90;;;6.80;99.90;;;;;;5054681;28;20045;-62
2022/01/16 13:00:11;;;;;;;1999.90;999.90;;;6.80;99.90;;;;;;5054842;28;20086;-62